Friday, October 19, 2018, 11:05 PM GMT
Back to Local

CWBZ, St Anicet

Location: , , Canada Lat: 45.117
Local Time: 11:05 PM GMT (23:05 GMT) Lon: -74.283
Time Zone: GMT Elev: 160 ft

Show me the last for .
Show Coded

Time T Td Feel RH Dir Speed Gust Alt SLP Vis Weather Sky Remarks
2018-10-19 22:00 58 41 - 53 230° 15 23 - 29.75 0 Peak wind: 27 mph (24 kts) from 250° at 11 min
2018-10-19 21:00 60 42 - 52 240° 16 26 - 29.76 0 Peak wind: 26 mph (23 kts) from 230° at 02 min
2018-10-19 20:00 61 42 - 49 230° 18 29 - 29.77 0 Peak wind: 31 mph (27 kts) from 230° at 04 min
2018-10-19 19:00 62 43 - 50 240° 16 26 - 29.80 0 Peak wind: 26 mph (23 kts) from 230° at 30 min
2018-10-19 18:00 61 42 - 50 230° 16 25 - 29.83 0 Peak wind: 28 mph (25 kts) from 220° at 19 min
2018-10-19 17:00 59 42 - 53 230° 18 29 - 29.87 0 Peak wind: 28 mph (25 kts) from 220° at 51 min
2018-10-19 16:00 57 39 - 51 230° 17 25 - 29.90 0 Peak wind: 29 mph (26 kts) from 260° at 16 min
2018-10-19 15:00 54 38 - 55 240° 18 26 - 29.94 0 Peak wind: 29 mph (26 kts) from 230° at 48 min
2018-10-19 14:00 51 38 - 61 230° 15 24 - 29.97 0 Peak wind: 24 mph (21 kts) from 240° at 52 min
2018-10-19 13:00 47 37 40 68 240° 12 18 - 30.00 0 Peak wind: 19 mph (17 kts) from 250° at 23 min
2018-10-19 12:00 43 36 38 75 230° 9 - - 30.01 0 None
2018-10-19 11:00 42 35 37 74 230° 9 - - 30.02 0 None
2018-10-19 10:00 41 33 36 73 230° 9 - - 30.05 0 None
2018-10-19 09:00 41 31 36 67 240° 8 - - 30.06 0 None
2018-10-19 08:00 42 31 36 66 240° 9 - - 30.07 0 None
2018-10-19 07:00 41 33 36 72 240° 8 - - 30.10 0 None
2018-10-19 06:00 40 29 34 65 230° 8 - - 30.12 0 None
2018-10-19 05:00 39 28 34 64 230° 8 - - 30.14 0 None
2018-10-19 04:00 38 27 33 62 230° 7 - - 30.16 0 None
2018-10-19 03:00 39 25 29 57 240° 9 17 - 30.19 0 None
2018-10-19 02:00 38 23 32 54 240° 9 - - 30.19 0 None
2018-10-19 01:00 37 20 30 50 230° 8 - - 30.19 0 None
2018-10-19 00:00 38 19 33 44 240° 7 - - 30.21 0 None

Support USWX by starting your Amazon purchase here.